Time;durP1;ratioP1;P1;durP2;ratioP2;P2;SDS_P1;SDS_P2;PMS_P1;PMS_P2;Temp;Humidity;BMP_temperature;BMP_pressure;BME280_temperature;BME280_humidity;BME280_pressure;Samples;Min_cycle;Max_cycle;Signal;HPM_P1;HPM_P2
2022/09/28 00:02:08;;;;;;;3.40;3.08;;;;;;;13.23;90.88;98870.89;1725530;81;25925;-81
2022/09/28 00:04:35;;;;;;;2.72;2.37;;;;;;;13.23;90.91;98872.23;1723258;83;26535;-79
2022/09/28 00:07:01;;;;;;;3.50;3.20;;;;;;;13.15;90.74;98866.20;1722389;83;25807;-79
2022/09/28 00:09:27;;;;;;;3.80;3.35;;;;;;;13.16;90.96;98868.36;1722478;82;27663;-80
2022/09/28 00:11:55;;;;;;;3.27;2.83;;;;;;;13.13;90.93;98867.50;1732925;81;26389;-80
2022/09/28 00:14:23;;;;;;;3.83;2.70;;;;;;;13.10;90.95;98870.17;1743541;81;25854;-80
2022/09/28 00:16:49;;;;;;;3.80;2.80;;;;;;;13.07;91.06;98881.92;1713858;82;26087;-80
2022/09/28 00:19:16;;;;;;;3.50;2.52;;;;;;;13.04;91.08;98873.81;1707002;83;25885;-80
2022/09/28 00:21:42;;;;;;;2.47;2.27;;;;;;;13.02;91.11;98873.76;1758793;80;27426;-80
2022/09/28 00:24:14;;;;;;;4.70;3.05;;;;;;;12.99;91.17;98868.86;1758804;80;25752;-80
2022/09/28 00:26:51;;;;;;;3.83;2.58;;;;;;;13.00;91.29;98877.22;1757308;81;26399;-80
2022/09/28 00:29:27;;;;;;;3.10;2.15;;;;;;;12.97;91.28;98874.48;1758687;81;26179;-80
2022/09/28 00:32:01;;;;;;;2.30;2.10;;;;;;;12.94;91.26;98870.11;1720725;81;25985;-82
2022/09/28 00:34:39;;;;;;;4.12;2.33;;;;;;;12.90;91.40;98872.48;1719492;81;27075;-81
2022/09/28 00:37:09;;;;;;;4.33;2.80;;;;;;;12.89;91.46;98865.49;1723759;81;25878;-81
2022/09/28 00:39:40;;;;;;;3.50;2.27;;;;;;;12.87;91.60;98861.41;1725153;81;25824;-81
2022/09/28 00:42:16;;;;;;;2.55;2.15;;;;;;;12.90;91.69;98863.59;1726311;81;25800;-81
2022/09/28 00:44:50;;;;;;;2.95;2.20;;;;;;;12.90;91.65;98860.39;1715515;81;25879;-81
2022/09/28 00:47:34;;;;;;;4.05;2.37;;;;;;;12.91;91.66;98861.21;1710998;82;28267;-80
2022/09/28 00:50:29;;;;;;;5.65;2.70;;;;;;;12.88;91.69;98855.78;1710768;82;26499;-82
2022/09/28 00:53:13;;;;;;;3.02;2.42;;;;;;;12.88;91.76;98860.34;1718657;83;25906;-80
2022/09/28 00:55:54;;;;;;;3.08;2.55;;;;;;;12.89;91.74;98854.74;1721362;83;25834;-81
2022/09/28 00:58:29;;;;;;;4.58;2.83;;;;;;;12.89;91.71;98848.03;1736750;81;25804;-81
2022/09/28 01:00:58;;;;;;;3.05;2.60;;;;;;;12.91;91.75;98836.50;1729447;81;28279;-80
2022/09/28 01:03:27;;;;;;;4.85;2.60;;;;;;;12.94;91.80;98839.20;1726047;81;25962;-80
2022/09/28 01:05:58;;;;;;;4.28;2.45;;;;;;;12.97;91.71;98840.89;1728099;81;26498;-81
2022/09/28 01:08:27;;;;;;;3.47;2.60;;;;;;;13.01;91.69;98838.52;1723500;82;25851;-79
2022/09/28 01:10:54;;;;;;;4.08;2.47;;;;;;;13.01;91.58;98828.59;1729688;81;25768;-80
2022/09/28 01:13:23;;;;;;;4.92;2.42;;;;;;;13.02;91.40;98828.86;1732963;81;26998;-79
2022/09/28 01:16:01;;;;;;;2.42;1.95;;;;;;;13.03;91.28;98829.16;1712376;82;25871;-81
2022/09/28 01:18:33;;;;;;;3.67;2.98;;;;;;;13.02;91.15;98834.78;1684857;83;25821;-80
2022/09/28 01:21:11;;;;;;;3.40;2.40;;;;;;;12.99;91.08;98835.27;1705707;83;26777;-80
2022/09/28 01:24:09;;;;;;;4.05;2.87;;;;;;;12.97;91.22;98829.32;1736784;81;25801;-79
2022/09/28 01:26:56;;;;;;;8.70;4.28;;;;;;;12.99;91.29;98829.89;1714213;81;28313;-82
2022/09/28 01:29:37;;;;;;;5.17;3.30;;;;;;;12.99;91.29;98823.17;1702741;81;26593;-81
2022/09/28 01:32:21;;;;;;;4.35;3.55;;;;;;;13.02;91.28;98821.34;1722449;82;25848;-81
2022/09/28 01:34:55;;;;;;;4.97;3.47;;;;;;;13.02;91.23;98827.52;1703642;82;26064;-81
2022/09/28 01:37:27;;;;;;;5.30;3.22;;;;;;;13.03;91.23;98823.78;1685192;83;25368;-81
2022/09/28 01:39:57;;;;;;;4.75;2.85;;;;;;;13.04;91.21;98818.70;1694548;83;27625;-81
2022/09/28 01:42:28;;;;;;;4.35;3.37;;;;;;;13.05;91.12;98815.50;1759330;80;25831;-81
2022/09/28 01:45:00;;;;;;;4.30;3.52;;;;;;;13.06;91.13;98816.62;1758564;80;25806;-80
2022/09/28 01:47:30;;;;;;;5.40;3.70;;;;;;;13.06;91.11;98821.17;1720615;81;25745;-80
2022/09/28 01:50:13;;;;;;;6.10;3.27;;;;;;;13.07;91.06;98813.38;1721963;81;25334;-80
2022/09/28 01:53:01;;;;;;;4.40;3.25;;;;;;;13.07;91.05;98817.41;1723045;81;27496;-81
2022/09/28 01:55:47;;;;;;;5.08;3.60;;;;;;;13.06;91.05;98819.30;1713114;81;25802;-82
2022/09/28 01:58:38;;;;;;;7.67;4.20;;;;;;;13.07;91.05;98814.72;1758069;81;25783;-82
2022/09/28 02:01:17;;;;;;;3.85;3.35;;;;;;;13.08;91.11;98818.53;1730470;80;26697;-81
2022/09/28 02:03:54;;;;;;;3.37;3.00;;;;;;;13.09;91.09;98823.34;1757359;80;25963;-81
2022/09/28 02:06:36;;;;;;;4.55;3.60;;;;;;;13.08;91.03;98824.42;1753933;80;27531;-82
2022/09/28 02:09:10;;;;;;;4.92;3.80;;;;;;;13.09;91.00;98827.37;1759682;80;25821;-80
2022/09/28 02:11:44;;;;;;;6.47;3.80;;;;;;;13.07;90.97;98827.63;1716194;81;25934;-80
2022/09/28 02:14:14;;;;;;;6.80;4.25;;;;;;;13.07;90.94;98832.19;1721866;81;25923;-82
2022/09/28 02:16:44;;;;;;;6.45;4.37;;;;;;;13.06;90.99;98827.89;1720832;81;25761;-80
2022/09/28 02:19:21;;;;;;;5.15;4.28;;;;;;;13.03;90.97;98826.47;1721669;81;27440;-82
2022/09/28 02:22:15;;;;;;;6.95;4.83;;;;;;;13.01;91.09;98825.91;1715381;81;25909;-81
2022/09/28 02:25:07;;;;;;;5.40;4.60;;;;;;;13.01;91.22;98826.42;1720850;81;26228;-81
2022/09/28 02:27:49;;;;;;;6.92;4.42;;;;;;;12.98;91.22;98826.38;1720652;83;26576;-81
2022/09/28 02:30:16;;;;;;;;;;;;;;;12.93;91.18;98834.38;1760703;80;26067;-81
2022/09/28 02:32:47;;;;;;;5.37;4.87;;;;;;;12.86;91.24;98827.52;1758327;80;27471;-81
2022/09/28 02:35:17;;;;;;;6.37;5.75;;;;;;;12.78;91.56;98823.91;1758074;80;25827;-81
2022/09/28 02:37:45;;;;;;;7.57;6.40;;;;;;;12.73;91.63;98821.95;1758487;80;26296;-81
2022/09/28 02:40:23;;;;;;;7.87;7.08;;;;;;;12.68;91.74;98819.16;1757660;80;26582;-81
2022/09/28 02:43:23;;;;;;;10.72;8.58;;;;;;;12.63;91.76;98824.47;1753274;80;25791;-81
2022/09/28 02:46:10;;;;;;;9.15;8.23;;;;;;;12.61;91.92;98824.42;1705164;81;27473;-81
2022/09/28 02:48:56;;;;;;;10.95;8.88;;;;;;;12.60;92.20;98824.12;1758738;80;25620;-81
2022/09/28 02:51:53;;;;;;;10.70;9.08;;;;;;;12.58;92.22;98816.84;1728723;81;25835;-81
2022/09/28 02:54:54;;;;;;;12.18;9.98;;;;;;;12.55;92.28;98818.16;1748440;81;25981;-81
2022/09/28 02:57:49;;;;;;;11.25;10.05;;;;;;;12.57;92.45;98821.42;1752236;81;25808;-80
2022/09/28 03:00:23;;;;;;;12.75;10.63;;;;;;;12.57;92.31;98815.23;1758076;80;27482;-80
2022/09/28 03:03:15;;;;;;;11.30;9.88;;;;;;;12.48;91.99;98808.09;1751755;80;25827;-81
2022/09/28 03:06:05;;;;;;;13.20;10.85;;;;;;;12.44;91.99;98809.64;1758383;80;26455;-80
2022/09/28 03:08:39;;;;;;;14.20;11.38;;;;;;;12.36;91.98;98811.34;1758072;80;25783;-80
2022/09/28 03:11:15;;;;;;;12.30;11.03;;;;;;;12.35;92.12;98805.70;1758331;81;26039;-80
2022/09/28 03:13:43;;;;;;;16.45;13.03;;;;;;;12.32;92.10;98808.34;1734465;81;27450;-80
2022/09/28 03:16:14;;;;;;;14.47;12.33;;;;;;;12.33;92.22;98810.51;1694850;83;25795;-80
2022/09/28 03:18:40;;;;;;;;;;;;;;;12.29;92.08;98812.05;1718872;81;25777;-79
2022/09/28 03:21:09;;;;;;;14.28;12.15;;;;;;;12.28;92.28;98816.59;1712683;81;25766;-80
2022/09/28 03:23:35;;;;;;;13.68;12.00;;;;;;;12.26;92.31;98817.89;1722140;81;26319;-79
2022/09/28 03:26:02;;;;;;;14.63;11.85;;;;;;;12.26;92.34;98821.91;1722641;81;27432;-81
2022/09/28 03:28:29;;;;;;;14.00;11.08;;;;;;;12.26;92.36;98826.76;1722519;81;25815;-80
2022/09/28 03:30:56;;;;;;;14.18;12.58;;;;;;;12.23;92.42;98825.09;1698825;81;26615;-80
2022/09/28 03:33:23;;;;;;;14.55;11.95;;;;;;;12.24;92.50;98820.00;1688201;82;25934;-80
2022/09/28 03:35:49;;;;;;;16.80;13.30;;;;;;;12.21;92.41;98822.63;1729835;81;25792;-81
2022/09/28 03:38:17;;;;;;;14.05;12.55;;;;;;;12.20;92.53;98821.02;1762741;80;27440;-80
2022/09/28 03:40:53;;;;;;;14.90;12.23;;;;;;;12.21;92.68;98823.18;1767157;80;25322;-80
2022/09/28 03:43:20;;;;;;;14.58;12.33;;;;;;;12.17;92.37;98820.14;1722270;83;25796;-80
2022/09/28 03:45:55;;;;;;;15.25;12.33;;;;;;;12.14;92.62;98817.13;1722105;81;26485;-80
2022/09/28 03:48:24;;;;;;;14.73;12.13;;;;;;;12.16;92.83;98823.90;1704438;81;25914;-81
2022/09/28 03:50:55;;;;;;;15.58;12.50;;;;;;;12.08;92.42;98828.28;1731937;81;27534;-80
2022/09/28 03:53:23;;;;;;;14.98;12.53;;;;;;;12.05;92.67;98830.64;1765928;80;25750;-80
2022/09/28 03:55:52;;;;;;;13.80;12.37;;;;;;;12.05;92.73;98830.64;1764094;80;25273;-80
2022/09/28 03:58:21;;;;;;;14.07;12.05;;;;;;;12.01;92.51;98834.34;1734419;81;25702;-80
2022/09/28 04:00:48;;;;;;;14.90;12.58;;;;;;;11.99;92.64;98836.97;1737751;81;26562;-80
2022/09/28 04:03:15;;;;;;;14.60;12.18;;;;;;;11.99;92.76;98835.10;1763045;80;27467;-81
2022/09/28 04:05:52;;;;;;;15.55;12.37;;;;;;;11.98;92.79;98832.64;1761342;80;25795;-81
2022/09/28 04:08:18;;;;;;;13.95;12.45;;;;;;;11.98;92.80;98828.61;1765721;80;25899;-80
2022/09/28 04:10:46;;;;;;;13.53;12.13;;;;;;;11.95;92.68;98831.27;1735842;81;25822;-80
2022/09/28 04:13:14;;;;;;;14.40;12.23;;;;;;;11.93;92.72;98831.22;1764343;80;25517;-81
2022/09/28 04:15:42;;;;;;;14.13;12.43;;;;;;;11.91;92.62;98836.00;1761144;80;27439;-81
2022/09/28 04:18:10;;;;;;;15.85;13.35;;;;;;;11.87;92.61;98841.02;1727181;81;26137;-80
2022/09/28 04:20:44;;;;;;;16.67;13.15;;;;;;;11.84;92.75;98836.66;1644695;82;25994;-81
2022/09/28 04:23:11;;;;;;;15.40;12.47;;;;;;;11.82;92.70;98850.31;1762716;80;25776;-81
2022/09/28 04:25:38;;;;;;;15.08;12.30;;;;;;;11.81;92.83;98852.70;1760496;80;25737;-80
2022/09/28 04:30:49;;;;;;;13.58;12.18;;;;;;;11.78;92.90;98854.53;1741886;80;25812;-81
2022/09/28 04:33:16;;;;;;;13.45;12.03;;;;;;;11.75;92.82;98863.55;1763175;80;25962;-80
2022/09/28 04:35:44;;;;;;;17.23;12.85;;;;;;;11.72;92.77;98864.83;1768627;80;27043;-80
2022/09/28 04:38:11;;;;;;;15.68;12.85;;;;;;;11.69;92.73;98855.11;1762178;80;25898;-80
2022/09/28 04:40:37;;;;;;;14.58;11.75;;;;;;;11.63;92.57;98850.94;1756261;81;27413;-81
2022/09/28 04:43:04;;;;;;;14.28;12.37;;;;;;;11.59;92.79;98852.98;1760384;80;25916;-81
2022/09/28 04:45:31;;;;;;;14.70;12.43;;;;;;;11.60;93.07;98851.95;1753771;80;26177;-82
2022/09/28 04:48:00;;;;;;;14.90;12.93;;;;;;;11.60;93.02;98854.62;1758126;80;25827;-81
2022/09/28 04:50:31;;;;;;;13.95;11.57;;;;;;;11.60;93.01;98858.66;1753251;80;26106;-80
2022/09/28 04:53:08;;;;;;;15.38;12.33;;;;;;;11.58;92.85;98856.73;1756785;80;28398;-80
2022/09/28 04:55:34;;;;;;;13.88;12.20;;;;;;;11.51;92.80;98858.20;1756640;80;25893;-80
2022/09/28 04:58:02;;;;;;;14.10;12.15;;;;;;;11.50;93.01;98853.08;1761132;80;25804;-80
2022/09/28 05:00:33;;;;;;;14.47;12.43;;;;;;;11.50;93.05;98856.55;1755049;80;26448;-81
2022/09/28 05:03:08;;;;;;;14.78;12.18;;;;;;;11.52;93.30;98852.31;1755147;80;25806;-80
2022/09/28 05:05:46;;;;;;;14.47;12.63;;;;;;;11.50;93.11;98856.55;1739052;80;28294;-81
2022/09/28 05:08:18;;;;;;;15.58;13.40;;;;;;;11.49;93.15;98860.81;1755185;80;25799;-80
2022/09/28 05:10:45;;;;;;;16.10;13.60;;;;;;;11.50;93.29;98861.91;1697679;81;25797;-81
2022/09/28 05:13:12;;;;;;;14.85;13.28;;;;;;;11.53;93.43;98854.75;1729620;81;25931;-81
2022/09/28 05:15:41;;;;;;;15.65;13.98;;;;;;;11.57;93.41;98857.25;1711311;82;25452;-80
2022/09/28 05:18:08;;;;;;;16.50;13.55;;;;;;;11.60;93.38;98847.92;1727740;81;27470;-81
2022/09/28 05:20:51;;;;;;;15.08;13.48;;;;;;;11.59;93.29;98857.83;1721001;81;25884;-81
2022/09/28 05:23:17;;;;;;;15.38;13.45;;;;;;;11.56;93.12;98858.32;1721324;81;26054;-80
2022/09/28 05:25:45;;;;;;;14.50;12.60;;;;;;;11.56;93.17;98861.00;1725856;81;26536;-81
2022/09/28 05:28:19;;;;;;;;;;;;;;;11.55;93.15;98853.17;1728667;81;25384;-80
2022/09/28 05:30:52;;;;;;;18.27;12.65;;;;;;;11.53;93.02;98850.73;1722020;82;27545;-81
2022/09/28 05:33:37;;;;;;;15.38;12.75;;;;;;;11.49;93.14;98847.41;1725992;81;26574;-81
2022/09/28 05:36:12;;;;;;;15.28;13.53;;;;;;;11.49;93.03;98851.44;1720681;81;25841;-81
2022/09/28 05:38:38;;;;;;;17.05;13.25;;;;;;;11.51;93.09;98854.69;1707234;82;26371;-81
2022/09/28 05:41:05;;;;;;;20.25;14.10;;;;;;;11.53;92.97;98856.09;1722214;82;25898;-81
2022/09/28 05:43:31;;;;;;;16.25;13.53;;;;;;;11.54;93.12;98859.59;1722572;82;27546;-82
2022/09/28 05:45:59;;;;;;;15.95;12.85;;;;;;;11.53;92.94;98857.44;1722082;83;26177;-81
2022/09/28 05:48:27;;;;;;;15.68;12.75;;;;;;;11.55;92.93;98858.53;1704741;82;25345;-81
2022/09/28 05:50:53;;;;;;;16.48;13.00;;;;;;;11.55;92.89;98869.26;1723345;81;25921;-82
2022/09/28 05:53:22;;;;;;;17.52;13.25;;;;;;;11.52;92.53;98870.56;1725586;81;25376;-81
2022/09/28 05:55:48;;;;;;;14.80;12.45;;;;;;;11.45;92.16;98873.06;1723784;81;27490;-82
2022/09/28 05:58:16;;;;;;;14.47;12.70;;;;;;;11.40;92.13;98864.38;1724520;81;25889;-80
2022/09/28 06:00:42;;;;;;;14.75;13.10;;;;;;;11.38;92.12;98876.38;1729492;81;26118;-80
2022/09/28 06:03:12;;;;;;;16.75;13.18;;;;;;;11.34;91.86;98876.56;1720665;81;26408;-82
2022/09/28 06:05:40;;;;;;;16.48;12.43;;;;;;;11.36;92.26;98877.14;1722303;81;25313;-81
2022/09/28 06:08:13;;;;;;;16.67;12.43;;;;;;;11.37;91.97;98880.13;1725139;81;27717;-81
2022/09/28 06:10:39;;;;;;;18.25;13.70;;;;;;;11.35;92.18;98876.34;1723652;81;25820;-80
2022/09/28 06:13:06;;;;;;;15.18;11.97;;;;;;;11.37;92.15;98874.25;1723026;82;25800;-81
2022/09/28 06:15:34;;;;;;;17.30;14.58;;;;;;;11.37;92.13;98872.91;1724630;81;25931;-80
2022/09/28 06:18:13;;;;;;;22.02;16.20;;;;;;;11.40;91.94;98868.91;1731801;81;25512;-81
2022/09/28 06:20:44;;;;;;;16.20;14.25;;;;;;;11.41;91.86;98867.88;1717379;81;28345;-81
2022/09/28 06:23:15;;;;;;;;;;;;;;;11.46;92.05;98880.07;1727349;81;26032;-80
2022/09/28 06:25:42;;;;;;;17.48;14.85;;;;;;;11.48;91.70;98873.95;1728778;81;25861;-83
2022/09/28 06:28:12;;;;;;;18.12;14.47;;;;;;;11.48;91.75;98873.40;1717704;81;25845;-81
2022/09/28 06:30:41;;;;;;;18.40;14.03;;;;;;;11.55;92.17;98869.26;1720831;83;31640;-80
2022/09/28 06:33:12;;;;;;;17.87;14.03;;;;;;;11.64;92.08;98873.22;1723727;81;26989;-81
2022/09/28 06:35:39;;;;;;;17.00;13.85;;;;;;;11.65;91.66;98874.31;1724585;81;25837;-81
2022/09/28 06:38:06;;;;;;;15.50;13.93;;;;;;;11.66;91.44;98879.16;1713785;82;26061;-81
2022/09/28 06:40:33;;;;;;;17.02;14.13;;;;;;;11.65;91.46;98886.94;1726311;81;26184;-81
2022/09/28 06:43:13;;;;;;;19.65;13.78;;;;;;;11.65;91.42;98889.62;1705567;81;25991;-81
2022/09/28 06:45:58;;;;;;;18.25;15.10;;;;;;;11.65;91.36;98893.09;1707559;82;27490;-81
2022/09/28 06:48:26;;;;;;;15.85;14.13;;;;;;;11.62;90.85;98890.07;1663626;81;26231;-81
2022/09/28 06:50:53;;;;;;;16.97;15.20;;;;;;;11.62;90.63;98896.78;1688373;83;26485;-81
2022/09/28 06:53:28;;;;;;;18.42;15.20;;;;;;;11.57;90.28;98903.36;1700500;82;26527;-81
2022/09/28 06:56:01;;;;;;;20.77;16.80;;;;;;;11.53;90.18;98906.22;1706281;82;25780;-81
2022/09/28 06:58:28;;;;;;;17.65;15.75;;;;;;;11.52;90.39;98896.56;1722809;82;27921;-80
2022/09/28 07:01:00;;;;;;;16.23;14.63;;;;;;;11.53;90.66;98894.16;1722957;81;25863;-81
2022/09/28 07:03:28;;;;;;;20.60;15.15;;;;;;;11.57;90.72;98896.14;1733881;81;25956;-80
2022/09/28 07:06:00;;;;;;;18.32;13.45;;;;;;;11.60;90.87;98901.05;1702222;80;25917;-80
2022/09/28 07:08:34;;;;;;;19.45;13.58;;;;;;;11.62;90.76;98904.82;1723644;80;25575;-81
2022/09/28 07:11:20;;;;;;;18.05;13.70;;;;;;;11.64;90.76;98909.42;1758881;80;27573;-80
2022/09/28 07:13:51;;;;;;;14.75;12.85;;;;;;;11.66;90.65;98910.00;1753180;80;25922;-81
2022/09/28 07:16:19;;;;;;;14.55;12.55;;;;;;;11.69;90.82;98915.46;1722418;81;25763;-81
2022/09/28 07:18:45;;;;;;;16.35;11.48;;;;;;;11.72;90.94;98920.37;1706221;83;25757;-81
2022/09/28 07:21:13;;;;;;;15.88;12.37;;;;;;;11.72;90.59;98917.69;1722490;83;26054;-80
2022/09/28 07:23:40;;;;;;;13.13;11.30;;;;;;;11.65;90.14;98918.56;1723452;81;28256;-81
2022/09/28 07:26:22;;;;;;;15.45;12.35;;;;;;;11.65;90.33;98917.78;1713654;83;25759;-80
2022/09/28 07:28:54;;;;;;;13.95;12.43;;;;;;;11.65;90.49;98923.93;1717987;81;25331;-80
2022/09/28 07:31:32;;;;;;;15.43;13.40;;;;;;;11.61;90.26;98921.98;1685799;82;26393;-81
2022/09/28 07:34:02;;;;;;;15.50;12.68;;;;;;;11.62;90.49;98921.73;1758491;80;25291;-81
2022/09/28 07:36:33;;;;;;;13.73;12.33;;;;;;;11.64;90.50;98923.66;1758798;80;28974;-81
2022/09/28 07:38:59;;;;;;;16.40;13.43;;;;;;;11.65;90.37;98921.25;1758710;80;25797;-79
2022/09/28 07:41:31;;;;;;;17.07;12.90;;;;;;;11.68;90.53;98922.69;1757338;80;25757;-80
2022/09/28 07:43:54;;;;;;;15.25;13.45;;;;;;;11.77;90.83;98923.97;1753128;80;25795;-81
2022/09/28 07:46:21;;;;;;;14.70;12.73;;;;;;;11.83;90.69;98921.68;1757239;81;26249;-81
2022/09/28 07:48:50;;;;;;;16.30;13.62;;;;;;;11.92;90.92;98922.95;1758182;80;27089;-80
2022/09/28 07:51:24;;;;;;;15.32;13.50;;;;;;;11.92;90.12;98926.98;1749138;80;26443;-80
2022/09/28 07:53:56;;;;;;;13.93;11.15;;;;;;;11.93;90.49;98937.98;1758551;80;25953;-80
2022/09/28 07:56:40;;;;;;;13.22;11.93;;;;;;;11.94;90.36;98936.13;1759061;81;25798;-80
2022/09/28 07:59:19;;;;;;;11.48;10.18;;;;;;;12.03;90.55;98930.70;1756264;80;25860;-81
2022/09/28 08:01:53;;;;;;;11.20;9.73;;;;;;;12.20;90.84;98931.08;1716872;80;27539;-81
2022/09/28 08:04:19;;;;;;;13.68;10.53;;;;;;;12.30;89.89;98921.05;1712799;81;26492;-81
2022/09/28 08:06:47;;;;;;;10.72;9.63;;;;;;;12.32;89.88;98929.16;1704809;81;25852;-81
2022/09/28 08:09:13;;;;;;;10.28;8.83;;;;;;;12.43;90.15;98926.66;1706403;83;26406;-82
2022/09/28 08:11:58;;;;;;;10.45;9.35;;;;;;;12.53;89.83;98929.02;1719673;81;26202;-81
2022/09/28 08:14:36;;;;;;;10.65;8.10;;;;;;;12.51;88.65;98930.34;1719113;81;27595;-81
2022/09/28 08:17:16;;;;;;;10.58;8.45;;;;;;;12.47;88.01;98929.19;1664009;81;26623;-81
2022/09/28 08:22:31;;;;;;;12.47;9.00;;;;;;;12.40;88.25;98939.52;1704045;81;25843;-82
2022/09/28 08:24:59;;;;;;;10.60;9.28;;;;;;;12.44;88.12;98944.42;1691630;83;25803;-81
2022/09/28 08:27:25;;;;;;;10.25;8.23;;;;;;;12.49;88.55;98945.88;1682459;83;27470;-81
2022/09/28 08:29:51;;;;;;;9.63;8.70;;;;;;;12.58;88.87;98946.58;1676004;84;26511;-81
2022/09/28 08:32:38;;;;;;;9.38;7.62;;;;;;;12.61;88.16;98941.27;1701947;82;26763;-82
2022/09/28 08:35:24;;;;;;;9.35;7.25;;;;;;;12.65;88.57;98943.23;1694701;84;25857;-82
2022/09/28 08:38:08;;;;;;;9.13;7.80;;;;;;;12.70;88.14;98937.94;1591215;89;25483;-82
2022/09/28 08:40:59;;;;;;;9.20;7.72;;;;;;;12.77;88.01;98941.30;1661643;82;27484;-81
2022/09/28 08:43:50;;;;;;;8.25;7.20;;;;;;;12.83;87.95;98938.20;1705484;83;26186;-81
2022/09/28 08:46:22;;;;;;;8.35;7.53;;;;;;;12.88;87.70;98934.23;1707166;82;26130;-81
2022/09/28 08:49:13;;;;;;;9.30;7.12;;;;;;;12.94;87.63;98931.92;1709551;82;26708;-81
2022/09/28 08:52:12;;;;;;;8.78;7.25;;;;;;;12.99;87.16;98936.05;1703006;82;25887;-82
2022/09/28 08:54:50;;;;;;;8.80;6.60;;;;;;;13.07;87.46;98939.19;1696332;82;28229;-81
2022/09/28 08:57:48;;;;;;;7.37;6.42;;;;;;;13.18;87.08;98937.48;1721787;81;25793;-80
2022/09/28 09:00:24;;;;;;;10.78;6.30;;;;;;;13.27;87.00;98929.83;1722306;81;25940;-81
2022/09/28 09:02:51;;;;;;;11.90;7.03;;;;;;;13.41;86.13;98931.15;1705858;83;25779;-79
2022/09/28 09:05:23;;;;;;;6.83;5.60;;;;;;;13.51;85.46;98929.44;1759407;80;26390;-80
2022/09/28 09:08:29;;;;;;;6.25;5.28;;;;;;;13.61;85.59;98932.78;1757779;80;27466;-81
2022/09/28 09:11:23;;;;;;;6.92;5.28;;;;;;;13.76;86.17;98929.80;1732464;80;25880;-81
2022/09/28 09:14:21;;;;;;;6.83;5.00;;;;;;;13.83;85.52;98936.35;1715985;81;25879;-82
2022/09/28 09:17:14;;;;;;;5.28;4.78;;;;;;;13.91;85.44;98936.74;1752701;80;25837;-80
2022/09/28 09:20:19;;;;;;;;;;;;;;;14.02;84.75;98935.52;1765062;80;26345;-80
2022/09/28 09:23:00;;;;;;;6.12;4.95;;;;;;;14.01;83.55;98937.95;1759092;80;28366;-80
2022/09/28 09:25:35;;;;;;;6.67;4.87;;;;;;;13.99;83.63;98936.83;1760433;80;26545;-81
2022/09/28 09:28:38;;;;;;;4.65;4.22;;;;;;;14.05;82.95;98935.83;1721827;81;25773;-80
2022/09/28 09:31:29;;;;;;;5.50;4.00;;;;;;;14.01;82.05;98930.66;1718761;83;25772;-80
2022/09/28 09:34:12;;;;;;;5.33;4.60;;;;;;;14.02;81.82;98935.52;1719662;82;25768;-80
2022/09/28 09:37:16;;;;;;;5.20;3.95;;;;;;;14.08;82.00;98934.52;1720206;81;27489;-80
2022/09/28 09:40:34;;;;;;;6.50;4.35;;;;;;;14.13;81.19;98944.02;1720309;81;25935;-81
2022/09/28 09:43:57;;;;;;;10.55;4.10;;;;;;;14.06;80.01;98946.90;1721232;81;25706;-81
2022/09/28 09:47:08;;;;;;;5.20;3.58;;;;;;;14.10;80.75;98942.64;1712943;81;25867;-80
2022/09/28 09:49:57;;;;;;;6.15;3.72;;;;;;;14.18;80.73;98939.50;1754277;80;25789;-80
2022/09/28 09:52:35;;;;;;;4.12;3.80;;;;;;;14.21;79.68;98940.89;1763343;80;27470;-80
2022/09/28 09:55:11;;;;;;;4.50;3.80;;;;;;;14.28;79.82;98936.14;1742165;80;25597;-80
2022/09/28 09:57:49;;;;;;;3.85;3.05;;;;;;;14.37;80.30;98941.41;1687339;81;25781;-80
2022/09/28 10:00:18;;;;;;;5.97;3.50;;;;;;;14.45;79.92;98945.00;1746825;80;25826;-81
2022/09/28 10:02:48;;;;;;;4.50;3.20;;;;;;;14.49;79.06;98940.73;1757597;80;25661;-80
2022/09/28 10:05:26;;;;;;;4.55;3.00;;;;;;;14.46;78.81;98944.73;1758075;80;27408;-80
2022/09/28 10:08:13;;;;;;;4.87;3.00;;;;;;;14.47;79.02;98950.95;1720657;81;25972;-80
2022/09/28 10:11:18;;;;;;;4.15;2.87;;;;;;;14.45;78.31;98950.38;1691223;83;25354;-80
2022/09/28 10:13:48;;;;;;;4.45;3.10;;;;;;;14.35;77.48;98956.45;1703774;82;25871;-82
2022/09/28 10:16:34;;;;;;;5.90;3.08;;;;;;;14.29;77.15;98956.63;1758197;80;25945;-81
2022/09/28 10:19:02;;;;;;;5.75;3.02;;;;;;;14.25;77.12;98953.61;1756909;80;27682;-81
2022/09/28 10:21:51;;;;;;;5.47;3.98;;;;;;;14.25;77.42;98962.21;1665198;84;25897;-82
2022/09/28 10:24:36;;;;;;;8.33;3.98;;;;;;;14.29;77.16;98957.98;1703175;81;25667;-80
2022/09/28 10:27:13;;;;;;;5.12;2.83;;;;;;;14.32;77.58;98957.50;1721202;81;25797;-81
2022/09/28 10:29:52;;;;;;;2.67;2.47;;;;;;;14.32;77.47;98962.36;1708740;83;25696;-81
2022/09/28 10:32:37;;;;;;;4.00;2.72;;;;;;;14.32;77.29;98960.19;1708353;82;27556;-80
2022/09/28 10:35:25;;;;;;;4.40;3.08;;;;;;;14.31;77.27;98969.31;1688101;83;25887;-80
2022/09/28 10:38:06;;;;;;;4.80;2.92;;;;;;;14.26;76.47;98963.86;1756973;80;25778;-80
2022/09/28 10:40:54;;;;;;;6.05;3.15;;;;;;;14.24;76.58;98963.30;1758013;80;26399;-81
2022/09/28 10:44:04;;;;;;;4.70;3.45;;;;;;;14.22;76.82;98959.48;1718084;81;26041;-81
2022/09/28 10:46:24;;;;;;;7.03;3.20;;;;;;;14.25;77.38;98959.52;1734310;81;27466;-80
2022/09/28 10:48:57;;;;;;;3.47;3.02;;;;;;;14.33;76.89;98957.23;1758071;80;25791;-81
2022/09/28 10:51:52;;;;;;;4.33;3.20;;;;;;;14.42;77.51;98949.53;1722836;81;25839;-80
2022/09/28 10:54:22;;;;;;;6.08;3.10;;;;;;;14.48;77.50;98952.03;1722777;81;26015;-79
2022/09/28 10:56:53;;;;;;;4.03;2.70;;;;;;;14.50;76.49;98956.63;1696181;83;25761;-80
2022/09/28 10:59:32;;;;;;;4.22;2.83;;;;;;;14.51;76.75;98956.11;1707964;82;27596;-80
2022/09/28 11:02:32;;;;;;;3.37;2.72;;;;;;;14.55;76.50;98955.88;1708306;82;26459;-80
2022/09/28 11:05:04;;;;;;;4.12;2.77;;;;;;;14.56;76.35;98951.58;1715299;82;33954;-80
2022/09/28 11:07:37;;;;;;;3.40;2.90;;;;;;;14.55;75.90;98951.84;1718919;81;26124;-81
2022/09/28 11:10:04;;;;;;;4.78;3.00;;;;;;;14.55;75.59;98949.97;1708134;82;25841;-80
2022/09/28 11:12:42;;;;;;;3.52;2.90;;;;;;;14.58;76.23;98941.92;1707228;82;27463;-81
2022/09/28 11:15:18;;;;;;;5.03;3.02;;;;;;;14.62;76.46;98941.69;1692209;83;25679;-81
2022/09/28 11:17:45;;;;;;;5.08;2.70;;;;;;;14.66;76.32;98940.94;1723227;81;25824;-81
2022/09/28 11:20:29;;;;;;;6.40;3.40;;;;;;;14.73;76.15;98944.78;1712964;82;25976;-81
2022/09/28 11:23:15;;;;;;;4.67;3.37;;;;;;;14.73;75.82;98945.31;1699736;83;26269;-81
2022/09/28 11:25:42;;;;;;;4.20;2.98;;;;;;;14.75;75.97;98948.56;1759620;80;28349;-81
2022/09/28 11:28:20;;;;;;;9.68;3.60;;;;;;;14.78;75.69;98950.77;1757611;80;26423;-80
2022/09/28 11:30:52;;;;;;;7.83;3.58;;;;;;;14.80;75.58;98944.58;1755394;80;25782;-80
2022/09/28 11:33:37;;;;;;;7.55;3.50;;;;;;;14.82;75.64;98943.80;1748476;81;26019;-79
2022/09/28 11:36:37;;;;;;;5.58;3.58;;;;;;;14.84;75.33;98942.45;1754472;80;25830;-80
2022/09/28 11:39:17;;;;;;;6.78;3.47;;;;;;;14.85;75.47;98945.44;1756169;80;27432;-80
2022/09/28 11:42:06;;;;;;;4.95;3.35;;;;;;;14.90;75.51;98941.98;1709312;81;25525;-80
2022/09/28 11:44:38;;;;;;;5.72;3.70;;;;;;;14.90;74.92;98943.33;1764547;80;25931;-79
2022/09/28 11:47:44;;;;;;;7.03;3.42;;;;;;;14.93;75.51;98948.20;1762892;80;25804;-79
2022/09/28 11:50:44;;;;;;;6.45;3.40;;;;;;;14.97;75.50;98950.13;1771445;80;26689;-80
2022/09/28 11:53:34;;;;;;;5.12;2.80;;;;;;;15.00;75.53;98950.98;1761037;80;28312;-82
2022/09/28 11:56:38;;;;;;;6.45;3.05;;;;;;;15.02;75.37;98945.33;1763323;80;25278;-81
2022/09/28 11:59:39;;;;;;;4.33;2.95;;;;;;;14.94;74.37;98950.66;1750134;80;25822;-82
2022/09/28 12:02:21;;;;;;;4.42;3.00;;;;;;;14.92;74.75;98954.67;1762885;80;26517;-81
2022/09/28 12:04:57;;;;;;;6.90;3.58;;;;;;;14.91;74.46;98953.03;1771349;80;26427;-82
2022/09/28 12:07:30;;;;;;;5.97;3.30;;;;;;;14.91;74.81;98952.50;1781974;80;27418;-82
2022/09/28 12:10:11;;;;;;;5.53;3.58;;;;;;;14.92;74.75;98955.49;1757460;80;26518;-81
2022/09/28 12:12:44;;;;;;;;;;;;;;;14.94;74.65;98957.92;1757150;80;26023;-83
2022/09/28 12:15:44;;;;;;;4.75;2.72;;;;;;;14.95;74.35;98953.62;1756970;81;26128;-81